sensor_id;sensor_type;location;lat;lon;timestamp;temperature;humidity
70534;SHT31;58088;51.186;17.130;2023-05-08T00:02:12;7.41;67.64
70534;SHT31;58088;51.186;17.130;2023-05-08T00:04:39;7.35;67.69
70534;SHT31;58088;51.186;17.130;2023-05-08T00:07:05;7.31;67.67
70534;SHT31;58088;51.186;17.130;2023-05-08T00:09:31;7.27;67.74
70534;SHT31;58088;51.186;17.130;2023-05-08T00:11:57;7.24;67.81
70534;SHT31;58088;51.186;17.130;2023-05-08T00:14:23;7.22;67.91
70534;SHT31;58088;51.186;17.130;2023-05-08T00:16:49;7.17;68.14
70534;SHT31;58088;51.186;17.130;2023-05-08T00:19:15;7.15;68.26
70534;SHT31;58088;51.186;17.130;2023-05-08T00:21:42;7.12;68.30
70534;SHT31;58088;51.186;17.130;2023-05-08T00:24:08;7.07;68.44
70534;SHT31;58088;51.186;17.130;2023-05-08T00:26:34;7.03;68.50
70534;SHT31;58088;51.186;17.130;2023-05-08T00:29:00;6.99;68.60
70534;SHT31;58088;51.186;17.130;2023-05-08T00:31:26;6.97;68.67
70534;SHT31;58088;51.186;17.130;2023-05-08T00:33:52;6.94;68.69
70534;SHT31;58088;51.186;17.130;2023-05-08T00:36:19;6.92;68.76
70534;SHT31;58088;51.186;17.130;2023-05-08T00:38:45;6.89;68.80
70534;SHT31;58088;51.186;17.130;2023-05-08T00:41:11;6.88;68.76
70534;SHT31;58088;51.186;17.130;2023-05-08T00:43:37;6.86;68.80
70534;SHT31;58088;51.186;17.130;2023-05-08T00:46:04;6.84;68.88
70534;SHT31;58088;51.186;17.130;2023-05-08T00:48:32;6.83;68.92
70534;SHT31;58088;51.186;17.130;2023-05-08T00:51:01;6.78;69.00
70534;SHT31;58088;51.186;17.130;2023-05-08T00:53:35;6.76;69.09
70534;SHT31;58088;51.186;17.130;2023-05-08T00:56:04;6.73;69.09
70534;SHT31;58088;51.186;17.130;2023-05-08T00:58:32;6.68;69.19
70534;SHT31;58088;51.186;17.130;2023-05-08T01:00:59;6.65;69.23
70534;SHT31;58088;51.186;17.130;2023-05-08T01:03:25;6.64;69.29
70534;SHT31;58088;51.186;17.130;2023-05-08T01:05:53;6.62;69.31
70534;SHT31;58088;51.186;17.130;2023-05-08T01:08:19;6.59;69.41
70534;SHT31;58088;51.186;17.130;2023-05-08T01:10:55;6.57;69.45
70534;SHT31;58088;51.186;17.130;2023-05-08T01:13:48;6.54;69.58
70534;SHT31;58088;51.186;17.130;2023-05-08T01:16:28;6.48;69.69
70534;SHT31;58088;51.186;17.130;2023-05-08T01:22:42;6.39;70.05
70534;SHT31;58088;51.186;17.130;2023-05-08T01:34:56;6.24;70.50
70534;SHT31;58088;51.186;17.130;2023-05-08T01:37:41;6.22;70.53
70534;SHT31;58088;51.186;17.130;2023-05-08T01:43:25;6.17;70.50
70534;SHT31;58088;51.186;17.130;2023-05-08T01:46:02;6.16;70.59
70534;SHT31;58088;51.186;17.130;2023-05-08T01:49:07;6.13;70.74
70534;SHT31;58088;51.186;17.130;2023-05-08T01:51:59;6.08;70.76
70534;SHT31;58088;51.186;17.130;2023-05-08T01:54:36;6.06;70.73
70534;SHT31;58088;51.186;17.130;2023-05-08T01:57:45;6.03;70.72
70534;SHT31;58088;51.186;17.130;2023-05-08T02:00:16;6.00;70.77
70534;SHT31;58088;51.186;17.130;2023-05-08T02:02:47;5.97;70.80
70534;SHT31;58088;51.186;17.130;2023-05-08T02:05:16;5.93;70.80
70534;SHT31;58088;51.186;17.130;2023-05-08T02:07:46;5.90;70.98
70534;SHT31;58088;51.186;17.130;2023-05-08T02:10:14;5.88;71.07
70534;SHT31;58088;51.186;17.130;2023-05-08T02:12:42;5.85;71.07
70534;SHT31;58088;51.186;17.130;2023-05-08T02:15:11;5.82;71.15
70534;SHT31;58088;51.186;17.130;2023-05-08T02:17:41;5.77;71.27
70534;SHT31;58088;51.186;17.130;2023-05-08T02:20:11;5.73;71.29
70534;SHT31;58088;51.186;17.130;2023-05-08T02:22:44;5.70;71.37
70534;SHT31;58088;51.186;17.130;2023-05-08T02:25:14;5.64;71.40
70534;SHT31;58088;51.186;17.130;2023-05-08T02:27:43;5.61;71.54
70534;SHT31;58088;51.186;17.130;2023-05-08T02:30:12;5.58;71.75
70534;SHT31;58088;51.186;17.130;2023-05-08T02:32:42;5.56;71.71
70534;SHT31;58088;51.186;17.130;2023-05-08T02:35:14;5.54;71.85
70534;SHT31;58088;51.186;17.130;2023-05-08T02:37:43;5.52;71.95
70534;SHT31;58088;51.186;17.130;2023-05-08T02:40:23;5.50;72.10
70534;SHT31;58088;51.186;17.130;2023-05-08T02:42:54;5.48;72.15
70534;SHT31;58088;51.186;17.130;2023-05-08T02:45:22;5.46;72.25
70534;SHT31;58088;51.186;17.130;2023-05-08T02:53:24;5.43;72.37
70534;SHT31;58088;51.186;17.130;2023-05-08T02:56:02;5.41;72.41
70534;SHT31;58088;51.186;17.130;2023-05-08T03:01:42;5.40;72.42
70534;SHT31;58088;51.186;17.130;2023-05-08T03:04:21;5.38;72.43
70534;SHT31;58088;51.186;17.130;2023-05-08T03:06:55;5.38;72.54
70534;SHT31;58088;51.186;17.130;2023-05-08T03:09:25;5.38;72.59
70534;SHT31;58088;51.186;17.130;2023-05-08T03:12:02;5.38;72.69
70534;SHT31;58088;51.186;17.130;2023-05-08T03:14:36;5.38;72.76
70534;SHT31;58088;51.186;17.130;2023-05-08T03:17:12;5.34;72.85
70534;SHT31;58088;51.186;17.130;2023-05-08T03:19:42;5.35;72.82
70534;SHT31;58088;51.186;17.130;2023-05-08T03:22:15;5.33;72.88
70534;SHT31;58088;51.186;17.130;2023-05-08T03:24:45;5.33;72.90
70534;SHT31;58088;51.186;17.130;2023-05-08T03:27:15;5.34;72.95
70534;SHT31;58088;51.186;17.130;2023-05-08T03:29:43;5.36;72.90
70534;SHT31;58088;51.186;17.130;2023-05-08T03:32:11;5.40;72.83
70534;SHT31;58088;51.186;17.130;2023-05-08T03:34:40;5.55;72.95
70534;SHT31;58088;51.186;17.130;2023-05-08T03:37:07;5.91;72.80
70534;SHT31;58088;51.186;17.130;2023-05-08T03:39:34;6.25;72.39
70534;SHT31;58088;51.186;17.130;2023-05-08T03:42:00;6.59;71.89
70534;SHT31;58088;51.186;17.130;2023-05-08T03:44:28;7.01;71.32
70534;SHT31;58088;51.186;17.130;2023-05-08T03:46:55;7.41;70.73
70534;SHT31;58088;51.186;17.130;2023-05-08T03:49:25;7.89;70.03
70534;SHT31;58088;51.186;17.130;2023-05-08T03:51:54;8.37;69.06
70534;SHT31;58088;51.186;17.130;2023-05-08T03:54:21;8.78;68.07
70534;SHT31;58088;51.186;17.130;2023-05-08T03:56:53;9.27;67.29
70534;SHT31;58088;51.186;17.130;2023-05-08T04:01:58;10.23;65.53
70534;SHT31;58088;51.186;17.130;2023-05-08T04:04:41;10.70;64.22
70534;SHT31;58088;51.186;17.130;2023-05-08T04:07:18;11.07;63.14
70534;SHT31;58088;51.186;17.130;2023-05-08T04:12:35;11.81;61.42
70534;SHT31;58088;51.186;17.130;2023-05-08T04:15:18;12.11;60.31
70534;SHT31;58088;51.186;17.130;2023-05-08T04:20:33;12.63;58.16
70534;SHT31;58088;51.186;17.130;2023-05-08T04:23:03;12.82;57.48
70534;SHT31;58088;51.186;17.130;2023-05-08T04:25:32;12.77;56.65
70534;SHT31;58088;51.186;17.130;2023-05-08T04:28:03;12.88;56.63
70534;SHT31;58088;51.186;17.130;2023-05-08T04:30:31;13.00;56.37
70534;SHT31;58088;51.186;17.130;2023-05-08T04:32:58;13.07;55.69
70534;SHT31;58088;51.186;17.130;2023-05-08T04:35:28;13.27;55.19
70534;SHT31;58088;51.186;17.130;2023-05-08T04:37:55;13.40;54.48
70534;SHT31;58088;51.186;17.130;2023-05-08T04:40:24;13.55;54.31
70534;SHT31;58088;51.186;17.130;2023-05-08T04:42:50;13.72;53.81
70534;SHT31;58088;51.186;17.130;2023-05-08T04:45:17;13.79;53.50
70534;SHT31;58088;51.186;17.130;2023-05-08T04:47:44;13.93;53.10
70534;SHT31;58088;51.186;17.130;2023-05-08T04:50:10;14.27;53.03
70534;SHT31;58088;51.186;17.130;2023-05-08T04:52:36;14.67;52.23
70534;SHT31;58088;51.186;17.130;2023-05-08T04:55:03;14.77;51.27
70534;SHT31;58088;51.186;17.130;2023-05-08T04:57:32;14.96;51.08
70534;SHT31;58088;51.186;17.130;2023-05-08T04:59:58;15.27;50.35
70534;SHT31;58088;51.186;17.130;2023-05-08T05:02:25;15.42;49.78
70534;SHT31;58088;51.186;17.130;2023-05-08T05:04:51;15.49;49.56
70534;SHT31;58088;51.186;17.130;2023-05-08T05:07:18;15.80;49.10
70534;SHT31;58088;51.186;17.130;2023-05-08T05:09:44;15.96;48.05
70534;SHT31;58088;51.186;17.130;2023-05-08T05:12:10;16.07;47.62
70534;SHT31;58088;51.186;17.130;2023-05-08T05:14:36;16.13;47.58
70534;SHT31;58088;51.186;17.130;2023-05-08T05:17:03;16.17;47.87
70534;SHT31;58088;51.186;17.130;2023-05-08T05:19:30;16.41;47.10
70534;SHT31;58088;51.186;17.130;2023-05-08T05:21:56;16.54;47.13
70534;SHT31;58088;51.186;17.130;2023-05-08T05:24:22;16.85;46.68
70534;SHT31;58088;51.186;17.130;2023-05-08T05:26:48;16.97;45.76
70534;SHT31;58088;51.186;17.130;2023-05-08T05:29:15;17.08;45.51
70534;SHT31;58088;51.186;17.130;2023-05-08T05:31:41;17.11;45.22
70534;SHT31;58088;51.186;17.130;2023-05-08T05:34:08;17.08;44.70
70534;SHT31;58088;51.186;17.130;2023-05-08T05:36:34;17.10;45.08
70534;SHT31;58088;51.186;17.130;2023-05-08T05:39:00;17.35;44.62
70534;SHT31;58088;51.186;17.130;2023-05-08T05:41:26;17.47;44.68
70534;SHT31;58088;51.186;17.130;2023-05-08T05:43:52;17.62;44.17
70534;SHT31;58088;51.186;17.130;2023-05-08T05:46:19;17.65;44.16
70534;SHT31;58088;51.186;17.130;2023-05-08T05:48:45;17.51;43.79
70534;SHT31;58088;51.186;17.130;2023-05-08T05:51:11;17.50;43.93
70534;SHT31;58088;51.186;17.130;2023-05-08T05:53:37;17.64;43.62
70534;SHT31;58088;51.186;17.130;2023-05-08T05:56:04;17.64;43.37
70534;SHT31;58088;51.186;17.130;2023-05-08T05:58:34;17.69;43.03
70534;SHT31;58088;51.186;17.130;2023-05-08T06:01:00;17.64;42.69
70534;SHT31;58088;51.186;17.130;2023-05-08T06:03:26;17.46;42.30
70534;SHT31;58088;51.186;17.130;2023-05-08T06:05:53;17.37;42.87
70534;SHT31;58088;51.186;17.130;2023-05-08T06:08:19;17.40;42.69
70534;SHT31;58088;51.186;17.130;2023-05-08T06:10:45;17.42;42.70
70534;SHT31;58088;51.186;17.130;2023-05-08T06:13:12;17.53;42.34
70534;SHT31;58088;51.186;17.130;2023-05-08T06:15:39;17.55;42.97
70534;SHT31;58088;51.186;17.130;2023-05-08T06:18:05;17.69;42.93
70534;SHT31;58088;51.186;17.130;2023-05-08T06:20:31;17.90;42.25
70534;SHT31;58088;51.186;17.130;2023-05-08T06:22:59;18.06;42.25
70534;SHT31;58088;51.186;17.130;2023-05-08T06:25:25;18.25;42.11
70534;SHT31;58088;51.186;17.130;2023-05-08T06:27:52;18.29;41.88
70534;SHT31;58088;51.186;17.130;2023-05-08T06:30:18;18.15;42.10
70534;SHT31;58088;51.186;17.130;2023-05-08T06:32:45;17.94;42.06
70534;SHT31;58088;51.186;17.130;2023-05-08T06:35:11;17.56;42.32
70534;SHT31;58088;51.186;17.130;2023-05-08T06:37:37;17.43;42.53
70534;SHT31;58088;51.186;17.130;2023-05-08T06:40:04;17.50;42.96
70534;SHT31;58088;51.186;17.130;2023-05-08T06:42:31;17.47;42.57
70534;SHT31;58088;51.186;17.130;2023-05-08T06:44:57;17.35;42.49
70534;SHT31;58088;51.186;17.130;2023-05-08T06:47:23;17.25;42.14
70534;SHT31;58088;51.186;17.130;2023-05-08T06:49:49;17.28;41.65
70534;SHT31;58088;51.186;17.130;2023-05-08T06:52:18;17.25;41.98
70534;SHT31;58088;51.186;17.130;2023-05-08T06:54:45;17.17;41.94
70534;SHT31;58088;51.186;17.130;2023-05-08T06:57:12;16.97;42.16
70534;SHT31;58088;51.186;17.130;2023-05-08T06:59:39;16.76;42.18
70534;SHT31;58088;51.186;17.130;2023-05-08T07:02:05;16.68;41.71
70534;SHT31;58088;51.186;17.130;2023-05-08T07:04:32;16.34;41.87
70534;SHT31;58088;51.186;17.130;2023-05-08T07:06:58;16.06;42.16
70534;SHT31;58088;51.186;17.130;2023-05-08T07:09:25;15.87;42.42
70534;SHT31;58088;51.186;17.130;2023-05-08T07:11:51;15.92;42.87
70534;SHT31;58088;51.186;17.130;2023-05-08T07:14:17;15.90;42.87
70534;SHT31;58088;51.186;17.130;2023-05-08T07:16:43;15.72;42.87
70534;SHT31;58088;51.186;17.130;2023-05-08T07:19:09;15.56;43.15
70534;SHT31;58088;51.186;17.130;2023-05-08T07:21:35;15.58;43.34
70534;SHT31;58088;51.186;17.130;2023-05-08T07:24:03;15.67;43.76
70534;SHT31;58088;51.186;17.130;2023-05-08T07:26:29;15.63;43.08
70534;SHT31;58088;51.186;17.130;2023-05-08T07:28:55;15.62;43.89
70534;SHT31;58088;51.186;17.130;2023-05-08T07:31:21;15.78;43.89
70534;SHT31;58088;51.186;17.130;2023-05-08T07:33:48;15.85;43.33
70534;SHT31;58088;51.186;17.130;2023-05-08T07:36:14;15.90;43.51
70534;SHT31;58088;51.186;17.130;2023-05-08T07:38:40;16.05;43.88
70534;SHT31;58088;51.186;17.130;2023-05-08T07:41:06;15.96;44.01
70534;SHT31;58088;51.186;17.130;2023-05-08T07:43:32;16.07;44.75
70534;SHT31;58088;51.186;17.130;2023-05-08T07:45:58;16.15;44.44
70534;SHT31;58088;51.186;17.130;2023-05-08T07:48:25;16.12;44.46
70534;SHT31;58088;51.186;17.130;2023-05-08T07:50:51;16.09;44.13
70534;SHT31;58088;51.186;17.130;2023-05-08T07:53:17;16.12;44.26
70534;SHT31;58088;51.186;17.130;2023-05-08T07:55:43;16.30;44.31
70534;SHT31;58088;51.186;17.130;2023-05-08T07:58:09;16.20;43.97
70534;SHT31;58088;51.186;17.130;2023-05-08T08:00:35;16.12;44.49
70534;SHT31;58088;51.186;17.130;2023-05-08T08:03:02;16.01;44.32
70534;SHT31;58088;51.186;17.130;2023-05-08T08:05:29;15.82;44.03
70534;SHT31;58088;51.186;17.130;2023-05-08T08:07:55;15.62;44.11
70534;SHT31;58088;51.186;17.130;2023-05-08T08:10:21;15.43;44.35
70534;SHT31;58088;51.186;17.130;2023-05-08T08:12:47;15.31;44.40
70534;SHT31;58088;51.186;17.130;2023-05-08T08:15:13;15.43;44.90
70534;SHT31;58088;51.186;17.130;2023-05-08T08:17:39;15.48;45.21
70534;SHT31;58088;51.186;17.130;2023-05-08T08:20:06;15.50;44.85
70534;SHT31;58088;51.186;17.130;2023-05-08T08:22:33;15.41;44.83
70534;SHT31;58088;51.186;17.130;2023-05-08T08:25:02;15.58;44.78
70534;SHT31;58088;51.186;17.130;2023-05-08T08:27:28;15.60;44.34
70534;SHT31;58088;51.186;17.130;2023-05-08T08:29:55;15.60;44.51
70534;SHT31;58088;51.186;17.130;2023-05-08T08:32:21;15.70;44.60
70534;SHT31;58088;51.186;17.130;2023-05-08T08:34:47;15.69;44.23
70534;SHT31;58088;51.186;17.130;2023-05-08T08:37:13;15.75;44.04
70534;SHT31;58088;51.186;17.130;2023-05-08T08:39:39;15.69;42.88
70534;SHT31;58088;51.186;17.130;2023-05-08T08:42:06;15.47;42.22
70534;SHT31;58088;51.186;17.130;2023-05-08T08:44:32;15.29;41.92
70534;SHT31;58088;51.186;17.130;2023-05-08T08:46:59;15.13;41.68
70534;SHT31;58088;51.186;17.130;2023-05-08T08:49:28;14.98;41.90
70534;SHT31;58088;51.186;17.130;2023-05-08T08:52:10;14.84;41.58
70534;SHT31;58088;51.186;17.130;2023-05-08T08:54:53;14.84;42.03
70534;SHT31;58088;51.186;17.130;2023-05-08T08:57:22;14.93;42.31
70534;SHT31;58088;51.186;17.130;2023-05-08T08:59:52;15.06;41.72
70534;SHT31;58088;51.186;17.130;2023-05-08T09:02:21;15.12;42.60
70534;SHT31;58088;51.186;17.130;2023-05-08T09:04:50;15.26;42.82
70534;SHT31;58088;51.186;17.130;2023-05-08T09:07:17;15.31;43.68
70534;SHT31;58088;51.186;17.130;2023-05-08T09:09:43;15.28;43.61
70534;SHT31;58088;51.186;17.130;2023-05-08T09:12:11;15.08;43.69
70534;SHT31;58088;51.186;17.130;2023-05-08T09:14:39;14.93;43.89
70534;SHT31;58088;51.186;17.130;2023-05-08T09:17:05;14.90;44.32
70534;SHT31;58088;51.186;17.130;2023-05-08T09:19:32;15.02;43.49
70534;SHT31;58088;51.186;17.130;2023-05-08T09:21:59;15.01;43.34
70534;SHT31;58088;51.186;17.130;2023-05-08T09:24:42;15.01;42.66
70534;SHT31;58088;51.186;17.130;2023-05-08T09:27:32;15.02;42.92
70534;SHT31;58088;51.186;17.130;2023-05-08T09:30:02;15.01;42.53
70534;SHT31;58088;51.186;17.130;2023-05-08T09:32:36;14.95;42.09
70534;SHT31;58088;51.186;17.130;2023-05-08T09:35:05;14.75;42.51
70534;SHT31;58088;51.186;17.130;2023-05-08T09:37:36;14.76;43.29
70534;SHT31;58088;51.186;17.130;2023-05-08T09:40:14;14.69;43.24
70534;SHT31;58088;51.186;17.130;2023-05-08T09:42:46;14.61;43.74
70534;SHT31;58088;51.186;17.130;2023-05-08T09:45:30;14.57;44.06
70534;SHT31;58088;51.186;17.130;2023-05-08T09:47:57;14.60;44.38
70534;SHT31;58088;51.186;17.130;2023-05-08T09:50:24;14.57;43.77
70534;SHT31;58088;51.186;17.130;2023-05-08T09:52:50;14.55;44.34
70534;SHT31;58088;51.186;17.130;2023-05-08T09:55:16;14.55;45.40
70534;SHT31;58088;51.186;17.130;2023-05-08T09:57:56;14.61;45.73
70534;SHT31;58088;51.186;17.130;2023-05-08T10:00:24;14.72;45.24
70534;SHT31;58088;51.186;17.130;2023-05-08T10:03:00;14.65;45.29
70534;SHT31;58088;51.186;17.130;2023-05-08T10:05:29;14.60;44.83
70534;SHT31;58088;51.186;17.130;2023-05-08T10:08:16;14.66;45.62
70534;SHT31;58088;51.186;17.130;2023-05-08T10:10:46;14.70;44.82
70534;SHT31;58088;51.186;17.130;2023-05-08T10:13:13;14.73;45.05
70534;SHT31;58088;51.186;17.130;2023-05-08T10:15:43;14.78;45.20
70534;SHT31;58088;51.186;17.130;2023-05-08T10:18:10;14.82;45.25
70534;SHT31;58088;51.186;17.130;2023-05-08T10:20:38;14.81;44.75
70534;SHT31;58088;51.186;17.130;2023-05-08T10:23:07;14.83;44.62
70534;SHT31;58088;51.186;17.130;2023-05-08T10:25:41;14.87;45.17
70534;SHT31;58088;51.186;17.130;2023-05-08T10:31:06;14.98;45.03
70534;SHT31;58088;51.186;17.130;2023-05-08T10:33:35;15.07;46.26
70534;SHT31;58088;51.186;17.130;2023-05-08T10:36:06;15.22;45.45
70534;SHT31;58088;51.186;17.130;2023-05-08T10:38:35;15.22;44.94
70534;SHT31;58088;51.186;17.130;2023-05-08T10:41:02;15.15;44.04
70534;SHT31;58088;51.186;17.130;2023-05-08T10:43:29;15.13;43.70
70534;SHT31;58088;51.186;17.130;2023-05-08T10:45:56;15.15;44.01
70534;SHT31;58088;51.186;17.130;2023-05-08T10:51:14;15.15;43.92
70534;SHT31;58088;51.186;17.130;2023-05-08T10:56:43;15.20;44.19
70534;SHT31;58088;51.186;17.130;2023-05-08T10:59:16;15.17;43.86
70534;SHT31;58088;51.186;17.130;2023-05-08T11:01:48;15.18;44.28
70534;SHT31;58088;51.186;17.130;2023-05-08T11:04:18;15.23;44.34
70534;SHT31;58088;51.186;17.130;2023-05-08T11:06:48;15.30;43.61
70534;SHT31;58088;51.186;17.130;2023-05-08T11:12:06;15.24;44.02
70534;SHT31;58088;51.186;17.130;2023-05-08T11:14:52;15.22;43.91
70534;SHT31;58088;51.186;17.130;2023-05-08T11:17:22;15.19;43.99
70534;SHT31;58088;51.186;17.130;2023-05-08T11:19:54;15.30;43.76
70534;SHT31;58088;51.186;17.130;2023-05-08T11:22:26;15.40;43.64
70534;SHT31;58088;51.186;17.130;2023-05-08T11:25:06;15.45;43.33
70534;SHT31;58088;51.186;17.130;2023-05-08T11:27:38;15.51;43.39
70534;SHT31;58088;51.186;17.130;2023-05-08T11:35:39;15.57;42.70
70534;SHT31;58088;51.186;17.130;2023-05-08T11:46:04;15.77;42.57
70534;SHT31;58088;51.186;17.130;2023-05-08T11:48:41;15.90;42.60
70534;SHT31;58088;51.186;17.130;2023-05-08T11:51:08;15.98;42.32
70534;SHT31;58088;51.186;17.130;2023-05-08T11:53:35;15.91;41.94
70534;SHT31;58088;51.186;17.130;2023-05-08T11:56:02;15.89;42.08
70534;SHT31;58088;51.186;17.130;2023-05-08T11:58:29;15.90;41.58
70534;SHT31;58088;51.186;17.130;2023-05-08T12:00:55;15.88;41.57
70534;SHT31;58088;51.186;17.130;2023-05-08T12:03:22;15.78;41.57
70534;SHT31;58088;51.186;17.130;2023-05-08T12:05:50;15.73;42.03
70534;SHT31;58088;51.186;17.130;2023-05-08T12:08:19;15.74;41.93
70534;SHT31;58088;51.186;17.130;2023-05-08T12:13:21;15.80;42.39
70534;SHT31;58088;51.186;17.130;2023-05-08T12:15:51;15.81;42.30
70534;SHT31;58088;51.186;17.130;2023-05-08T12:18:21;15.81;42.62
70534;SHT31;58088;51.186;17.130;2023-05-08T12:20:53;15.87;42.67
70534;SHT31;58088;51.186;17.130;2023-05-08T12:23:27;15.88;42.49
70534;SHT31;58088;51.186;17.130;2023-05-08T12:25:58;15.95;42.06
70534;SHT31;58088;51.186;17.130;2023-05-08T12:28:26;16.01;41.57
70534;SHT31;58088;51.186;17.130;2023-05-08T12:30:53;16.00;41.47
70534;SHT31;58088;51.186;17.130;2023-05-08T12:33:19;15.96;41.51
70534;SHT31;58088;51.186;17.130;2023-05-08T12:35:46;15.99;41.99
70534;SHT31;58088;51.186;17.130;2023-05-08T12:38:12;16.00;42.31
70534;SHT31;58088;51.186;17.130;2023-05-08T12:40:40;16.01;42.29
70534;SHT31;58088;51.186;17.130;2023-05-08T12:43:09;16.04;41.19
70534;SHT31;58088;51.186;17.130;2023-05-08T12:45:37;16.05;40.66
70534;SHT31;58088;51.186;17.130;2023-05-08T12:48:06;16.05;41.21
70534;SHT31;58088;51.186;17.130;2023-05-08T12:50:38;16.03;41.52
70534;SHT31;58088;51.186;17.130;2023-05-08T12:53:09;16.02;41.72
70534;SHT31;58088;51.186;17.130;2023-05-08T12:55:39;16.02;42.34
70534;SHT31;58088;51.186;17.130;2023-05-08T12:58:17;16.08;42.83
70534;SHT31;58088;51.186;17.130;2023-05-08T13:00:45;16.18;42.80
70534;SHT31;58088;51.186;17.130;2023-05-08T13:03:22;16.20;42.01
70534;SHT31;58088;51.186;17.130;2023-05-08T13:05:52;16.20;41.46
70534;SHT31;58088;51.186;17.130;2023-05-08T13:08:28;16.20;41.41
70534;SHT31;58088;51.186;17.130;2023-05-08T13:11:03;16.21;41.46
70534;SHT31;58088;51.186;17.130;2023-05-08T13:13:32;16.13;40.31
70534;SHT31;58088;51.186;17.130;2023-05-08T13:16:01;16.06;40.50
70534;SHT31;58088;51.186;17.130;2023-05-08T13:18:31;16.12;41.70
70534;SHT31;58088;51.186;17.130;2023-05-08T13:20:58;16.18;41.62
70534;SHT31;58088;51.186;17.130;2023-05-08T13:23:26;16.19;41.88
70534;SHT31;58088;51.186;17.130;2023-05-08T13:25:52;16.19;41.59
70534;SHT31;58088;51.186;17.130;2023-05-08T13:28:20;16.20;40.89
70534;SHT31;58088;51.186;17.130;2023-05-08T13:30:46;16.26;41.62
70534;SHT31;58088;51.186;17.130;2023-05-08T13:33:12;16.37;42.24
70534;SHT31;58088;51.186;17.130;2023-05-08T13:35:38;16.46;41.52
70534;SHT31;58088;51.186;17.130;2023-05-08T13:38:05;16.45;40.44
70534;SHT31;58088;51.186;17.130;2023-05-08T13:40:31;16.36;40.66
70534;SHT31;58088;51.186;17.130;2023-05-08T13:42:57;16.38;40.61
70534;SHT31;58088;51.186;17.130;2023-05-08T13:45:23;16.44;40.76
70534;SHT31;58088;51.186;17.130;2023-05-08T13:47:50;16.43;40.47
70534;SHT31;58088;51.186;17.130;2023-05-08T13:50:16;16.35;40.52
70534;SHT31;58088;51.186;17.130;2023-05-08T13:52:46;16.34;40.59
70534;SHT31;58088;51.186;17.130;2023-05-08T13:55:13;16.37;41.59
70534;SHT31;58088;51.186;17.130;2023-05-08T13:57:41;16.40;40.62
70534;SHT31;58088;51.186;17.130;2023-05-08T14:00:08;16.35;41.03
70534;SHT31;58088;51.186;17.130;2023-05-08T14:02:36;16.34;40.42
70534;SHT31;58088;51.186;17.130;2023-05-08T14:05:02;16.35;40.36
70534;SHT31;58088;51.186;17.130;2023-05-08T14:07:30;16.31;39.28
70534;SHT31;58088;51.186;17.130;2023-05-08T14:09:56;16.26;39.61
70534;SHT31;58088;51.186;17.130;2023-05-08T14:12:22;16.24;40.25
70534;SHT31;58088;51.186;17.130;2023-05-08T14:14:48;16.29;40.44
70534;SHT31;58088;51.186;17.130;2023-05-08T14:17:14;16.36;40.80
70534;SHT31;58088;51.186;17.130;2023-05-08T14:19:41;16.44;40.12
70534;SHT31;58088;51.186;17.130;2023-05-08T14:22:07;16.50;39.89
70534;SHT31;58088;51.186;17.130;2023-05-08T14:24:33;16.53;40.00
70534;SHT31;58088;51.186;17.130;2023-05-08T14:26:59;16.56;40.42
70534;SHT31;58088;51.186;17.130;2023-05-08T14:29:30;16.57;40.07
70534;SHT31;58088;51.186;17.130;2023-05-08T14:32:00;16.55;39.17
70534;SHT31;58088;51.186;17.130;2023-05-08T14:34:26;16.57;39.24
70534;SHT31;58088;51.186;17.130;2023-05-08T14:36:52;16.61;39.96
70534;SHT31;58088;51.186;17.130;2023-05-08T14:39:19;16.67;40.86
70534;SHT31;58088;51.186;17.130;2023-05-08T14:41:45;16.71;40.59
70534;SHT31;58088;51.186;17.130;2023-05-08T14:44:12;16.74;40.57
70534;SHT31;58088;51.186;17.130;2023-05-08T14:46:38;16.75;40.20
70534;SHT31;58088;51.186;17.130;2023-05-08T14:49:04;16.68;40.55
70534;SHT31;58088;51.186;17.130;2023-05-08T14:51:30;16.58;40.46
70534;SHT31;58088;51.186;17.130;2023-05-08T14:53:56;16.60;41.19
70534;SHT31;58088;51.186;17.130;2023-05-08T14:56:23;16.66;41.31
70534;SHT31;58088;51.186;17.130;2023-05-08T14:58:50;16.66;41.08
70534;SHT31;58088;51.186;17.130;2023-05-08T15:01:17;16.58;40.77
70534;SHT31;58088;51.186;17.130;2023-05-08T15:03:43;16.52;40.22
70534;SHT31;58088;51.186;17.130;2023-05-08T15:06:11;16.45;40.12
70534;SHT31;58088;51.186;17.130;2023-05-08T15:08:38;16.42;40.59
70534;SHT31;58088;51.186;17.130;2023-05-08T15:11:04;16.41;41.12
70534;SHT31;58088;51.186;17.130;2023-05-08T15:13:30;16.36;40.31
70534;SHT31;58088;51.186;17.130;2023-05-08T15:15:56;16.35;40.08
70534;SHT31;58088;51.186;17.130;2023-05-08T15:18:23;16.34;39.71
70534;SHT31;58088;51.186;17.130;2023-05-08T15:20:53;16.36;40.20
70534;SHT31;58088;51.186;17.130;2023-05-08T15:23:19;16.34;40.12
70534;SHT31;58088;51.186;17.130;2023-05-08T15:25:45;16.35;40.50
70534;SHT31;58088;51.186;17.130;2023-05-08T15:28:12;16.36;40.65
70534;SHT31;58088;51.186;17.130;2023-05-08T15:30:38;16.40;40.37
70534;SHT31;58088;51.186;17.130;2023-05-08T15:33:04;16.43;39.89
70534;SHT31;58088;51.186;17.130;2023-05-08T15:35:30;16.45;39.86
70534;SHT31;58088;51.186;17.130;2023-05-08T15:37:56;16.48;40.15
70534;SHT31;58088;51.186;17.130;2023-05-08T15:40:22;16.51;39.54
70534;SHT31;58088;51.186;17.130;2023-05-08T15:42:48;16.52;40.28
70534;SHT31;58088;51.186;17.130;2023-05-08T15:45:14;16.54;40.61
70534;SHT31;58088;51.186;17.130;2023-05-08T15:47:41;16.51;40.78
70534;SHT31;58088;51.186;17.130;2023-05-08T15:50:07;16.47;40.28
70534;SHT31;58088;51.186;17.130;2023-05-08T15:52:34;16.45;40.58
70534;SHT31;58088;51.186;17.130;2023-05-08T15:55:00;16.43;40.38
70534;SHT31;58088;51.186;17.130;2023-05-08T15:57:26;16.42;40.02
70534;SHT31;58088;51.186;17.130;2023-05-08T15:59:52;16.39;39.60
70534;SHT31;58088;51.186;17.130;2023-05-08T16:02:18;16.34;39.67
70534;SHT31;58088;51.186;17.130;2023-05-08T16:04:44;16.35;40.36
70534;SHT31;58088;51.186;17.130;2023-05-08T16:07:11;16.34;40.07
70534;SHT31;58088;51.186;17.130;2023-05-08T16:09:37;16.33;39.93
70534;SHT31;58088;51.186;17.130;2023-05-08T16:12:03;16.30;40.20
70534;SHT31;58088;51.186;17.130;2023-05-08T16:14:30;16.29;40.34
70534;SHT31;58088;51.186;17.130;2023-05-08T16:16:56;16.28;39.37
70534;SHT31;58088;51.186;17.130;2023-05-08T16:19:22;16.27;39.06
70534;SHT31;58088;51.186;17.130;2023-05-08T16:21:49;16.26;39.34
70534;SHT31;58088;51.186;17.130;2023-05-08T16:24:15;16.26;39.44
70534;SHT31;58088;51.186;17.130;2023-05-08T16:26:41;16.22;39.52
70534;SHT31;58088;51.186;17.130;2023-05-08T16:29:07;16.22;39.63
70534;SHT31;58088;51.186;17.130;2023-05-08T16:31:33;16.21;39.45